createdAt,value
2018-03-04T00:00:58.072Z,38.80
2018-03-04T00:03:26.417Z,37.50
2018-03-04T00:05:55.552Z,37.03
2018-03-04T00:08:24.262Z,36.87
2018-03-04T00:10:52.600Z,36.00
2018-03-04T00:13:20.926Z,41.40
2018-03-04T00:15:49.305Z,41.70
2018-03-04T00:18:17.660Z,41.80
2018-03-04T00:20:46.106Z,37.60
2018-03-04T00:23:14.496Z,42.03
2018-03-04T00:25:42.853Z,39.53
2018-03-04T00:28:11.268Z,39.33
2018-03-04T00:30:39.661Z,37.27
2018-03-04T00:33:08.057Z,35.27
2018-03-04T00:35:36.455Z,44.67
2018-03-04T00:38:04.786Z,42.33
2018-03-04T00:40:33.201Z,41.67
2018-03-04T00:43:01.585Z,43.30
2018-03-04T00:45:29.957Z,41.07
2018-03-04T00:47:58.326Z,38.40
2018-03-04T00:50:26.681Z,40.17
2018-03-04T00:52:55.028Z,40.27
2018-03-04T00:55:23.397Z,44.27
2018-03-04T00:57:51.989Z,40.03
2018-03-04T01:00:20.329Z,39.60
2018-03-04T01:02:48.746Z,39.67
2018-03-04T01:05:17.885Z,42.43
2018-03-04T01:07:46.282Z,40.77
2018-03-04T01:10:14.642Z,45.93
2018-03-04T01:12:43.055Z,47.40
2018-03-04T01:15:11.445Z,40.97
2018-03-04T01:17:39.816Z,40.13
2018-03-04T01:20:08.178Z,40.40
2018-03-04T01:22:37.364Z,42.30
2018-03-04T01:25:05.699Z,38.70
2018-03-04T01:27:34.032Z,41.10
2018-03-04T01:30:03.197Z,43.10
2018-03-04T01:32:31.532Z,46.60
2018-03-04T01:34:59.865Z,49.53
2018-03-04T01:37:28.265Z,43.13
2018-03-04T01:39:57.372Z,45.80
2018-03-04T01:42:26.473Z,45.30
2018-03-04T01:44:54.950Z,43.60
2018-03-04T01:47:23.290Z,43.50
2018-03-04T01:49:51.629Z,43.80
2018-03-04T01:52:19.998Z,44.43
2018-03-04T01:54:48.362Z,48.67
2018-03-04T01:57:17.492Z,45.60
2018-03-04T01:59:45.832Z,46.93
2018-03-04T02:02:14.941Z,43.43
2018-03-04T02:04:43.325Z,48.30
2018-03-04T02:07:11.694Z,42.13
2018-03-04T02:09:40.100Z,52.70
2018-03-04T02:12:08.473Z,52.23
2018-03-04T02:14:36.911Z,46.53
2018-03-04T02:17:06.045Z,45.00
2018-03-04T02:19:34.405Z,46.67
2018-03-04T02:22:02.737Z,48.63
2018-03-04T02:24:31.135Z,44.67
2018-03-04T02:27:00.373Z,46.90
2018-03-04T02:29:28.766Z,46.03
2018-03-04T02:31:57.154Z,46.00
2018-03-04T02:34:25.594Z,43.97
2018-03-04T02:36:54.703Z,47.93
2018-03-04T02:39:23.057Z,43.33
2018-03-04T02:41:51.452Z,49.20
2018-03-04T02:44:19.831Z,43.60
2018-03-04T02:46:48.207Z,48.17
2018-03-04T02:49:16.574Z,51.20
2018-03-04T02:51:44.935Z,45.60
2018-03-04T02:54:13.872Z,47.27
2018-03-04T02:56:42.282Z,45.57
2018-03-04T02:59:11.418Z,41.90
2018-03-04T03:01:39.762Z,47.47
2018-03-04T03:04:08.111Z,46.73
2018-03-04T03:06:36.454Z,50.80
2018-03-04T03:09:04.848Z,44.43
2018-03-04T03:11:39.079Z,45.93
2018-03-04T03:14:07.436Z,46.23
2018-03-04T03:16:35.805Z,50.63
2018-03-04T03:19:04.146Z,47.87
2018-03-04T03:21:33.253Z,52.90
2018-03-04T03:24:01.634Z,43.97
2018-03-04T03:26:30.740Z,45.83
2018-03-04T03:28:59.089Z,50.00
2018-03-04T03:31:27.465Z,44.40
2018-03-04T03:33:56.591Z,51.43
2018-03-04T03:36:24.941Z,48.50
2018-03-04T03:38:53.308Z,48.37
2018-03-04T03:41:22.424Z,50.17
2018-03-04T03:43:51.574Z,48.83
2018-03-04T03:46:19.908Z,48.50
2018-03-04T03:48:48.269Z,49.27
2018-03-04T03:51:16.615Z,44.70
2018-03-04T03:53:44.953Z,53.97
2018-03-04T03:56:13.334Z,48.50
2018-03-04T03:58:41.715Z,52.17
2018-03-04T04:01:10.057Z,49.83
2018-03-04T04:03:39.180Z,47.33
2018-03-04T04:06:07.549Z,51.60
2018-03-04T04:08:35.905Z,60.20
2018-03-04T04:11:05.007Z,47.50
2018-03-04T04:13:34.153Z,47.67
2018-03-04T04:16:02.476Z,49.27
2018-03-04T04:18:30.851Z,48.40
2018-03-04T04:20:59.991Z,52.13
2018-03-04T04:23:28.329Z,50.87
2018-03-04T04:25:57.438Z,50.30
2018-03-04T04:28:26.584Z,49.93
2018-03-04T04:30:55.225Z,53.37
2018-03-04T04:33:24.314Z,48.37
2018-03-04T04:35:52.679Z,59.17
2018-03-04T04:38:21.788Z,51.10
2018-03-04T04:40:50.171Z,58.40
2018-03-04T04:43:19.285Z,55.40
2018-03-04T04:45:47.632Z,52.30
2018-03-04T04:48:16.726Z,52.43
2018-03-04T04:50:45.829Z,52.90
2018-03-04T04:53:14.166Z,50.20
2018-03-04T04:55:42.537Z,50.93
2018-03-04T04:58:11.179Z,66.50
2018-03-04T05:00:39.530Z,53.23
2018-03-04T05:03:07.873Z,61.33
2018-03-04T05:05:37.016Z,54.13
2018-03-04T05:08:05.380Z,61.43
2018-03-04T05:10:34.500Z,53.80
2018-03-04T05:13:02.866Z,59.60
2018-03-04T05:15:31.234Z,51.93
2018-03-04T05:18:00.348Z,55.90
2018-03-04T05:20:28.721Z,55.07
2018-03-04T05:22:57.060Z,60.23
2018-03-04T05:25:25.412Z,59.87
2018-03-04T05:27:53.760Z,56.70
2018-03-04T05:30:22.096Z,59.30
2018-03-04T05:32:51.266Z,59.67
2018-03-04T05:35:19.605Z,54.50
2018-03-04T05:37:47.952Z,54.83
2018-03-04T05:40:16.313Z,55.30
2018-03-04T05:42:44.668Z,56.40
2018-03-04T05:45:13.019Z,58.23
2018-03-04T05:47:41.405Z,57.97
2018-03-04T05:50:09.773Z,62.87
2018-03-04T05:52:38.138Z,59.87
2018-03-04T05:55:06.537Z,56.77
2018-03-04T05:57:34.860Z,59.10
2018-03-04T06:00:03.196Z,59.07
2018-03-04T06:02:31.564Z,64.40
2018-03-04T06:04:59.954Z,51.10
2018-03-04T06:07:28.344Z,56.20
2018-03-04T06:09:56.700Z,56.10
2018-03-04T06:12:25.054Z,57.77
2018-03-04T06:14:54.165Z,57.07
2018-03-04T06:17:22.520Z,58.30
2018-03-04T06:19:51.649Z,53.00
2018-03-04T06:22:20.033Z,51.10
2018-03-04T06:24:48.406Z,60.77
2018-03-04T06:27:16.777Z,57.63
2018-03-04T06:29:45.136Z,55.10
2018-03-04T06:32:14.240Z,53.50
2018-03-04T06:34:42.605Z,57.80
2018-03-04T06:37:11.733Z,51.00
2018-03-04T06:39:40.078Z,55.73
2018-03-04T06:42:08.428Z,56.27
2018-03-04T06:44:36.806Z,54.90
2018-03-04T06:47:05.149Z,57.17
2018-03-04T06:49:33.479Z,58.87
2018-03-04T06:52:02.620Z,57.90
2018-03-04T06:54:30.988Z,54.37
2018-03-04T06:56:59.362Z,56.97
2018-03-04T06:59:27.696Z,57.70
2018-03-04T07:01:56.829Z,55.80
2018-03-04T07:04:25.234Z,55.83
2018-03-04T07:06:53.571Z,52.67
2018-03-04T07:09:22.001Z,58.00
2018-03-04T07:11:50.375Z,62.50
2018-03-04T07:14:18.755Z,58.87
2018-03-04T07:16:47.164Z,55.00
2018-03-04T07:19:15.502Z,55.10
2018-03-04T07:21:43.846Z,62.17
2018-03-04T07:24:12.323Z,53.83
2018-03-04T07:26:41.565Z,53.63
2018-03-04T07:29:09.939Z,59.70
2018-03-04T07:31:38.410Z,60.67
2018-03-04T07:34:06.771Z,52.10
2018-03-04T07:36:35.144Z,52.70
2018-03-04T07:39:03.547Z,59.00
2018-03-04T07:41:31.896Z,54.87
2018-03-04T07:44:01.031Z,55.70
2018-03-04T07:46:29.378Z,56.90
2018-03-04T07:48:57.777Z,54.67
2018-03-04T07:51:26.165Z,54.07
2018-03-04T07:53:54.547Z,52.03
2018-03-04T07:56:22.932Z,56.60
2018-03-04T07:58:51.268Z,56.43
2018-03-04T08:01:20.361Z,54.33
2018-03-04T08:03:48.746Z,54.90
2018-03-04T08:06:17.152Z,51.53
2018-03-04T08:08:45.485Z,51.37
2018-03-04T08:11:13.869Z,57.70
2018-03-04T08:13:42.457Z,57.53
2018-03-04T08:16:10.825Z,51.40
2018-03-04T08:18:39.208Z,55.40
2018-03-04T08:21:07.545Z,55.67
2018-03-04T08:23:36.689Z,52.73
2018-03-04T08:39:33.048Z,51.90
2018-03-04T08:42:02.976Z,48.77
2018-03-04T08:44:33.143Z,51.43
2018-03-04T08:47:03.071Z,54.10
2018-03-04T08:49:32.952Z,52.60
2018-03-04T08:52:02.831Z,50.87
2018-03-04T08:54:32.703Z,52.00
2018-03-04T08:57:02.592Z,54.23
2018-03-04T08:59:32.468Z,52.60
2018-03-04T09:02:02.372Z,53.40
2018-03-04T09:04:32.250Z,51.13
2018-03-04T09:07:02.129Z,54.23
2018-03-04T09:09:32.185Z,54.80
2018-03-04T09:12:02.068Z,59.17
2018-03-04T09:14:31.955Z,48.43
2018-03-04T09:17:01.816Z,55.37
2018-03-04T09:19:31.713Z,56.13
2018-03-04T09:22:01.597Z,55.90
2018-03-04T09:24:31.660Z,53.47
2018-03-04T09:27:01.536Z,56.90
2018-03-04T09:29:31.453Z,54.20
2018-03-04T09:32:01.373Z,55.87
2018-03-04T09:34:31.243Z,52.87
2018-03-04T09:37:01.165Z,54.50
2018-03-04T09:39:31.072Z,55.00
2018-03-04T09:42:00.966Z,52.53
2018-03-04T09:44:30.908Z,56.47
2018-03-04T09:47:00.777Z,58.53
2018-03-04T09:49:30.693Z,58.43
2018-03-04T09:52:00.544Z,51.60
2018-03-04T09:54:30.420Z,53.27
2018-03-04T09:57:00.308Z,52.77
2018-03-04T09:59:30.225Z,54.20
2018-03-04T10:02:00.087Z,52.60
2018-03-04T10:04:30.030Z,56.03
2018-03-04T10:06:59.895Z,59.27
2018-03-04T10:09:29.801Z,50.50
2018-03-04T10:11:59.672Z,52.30
2018-03-04T10:14:29.664Z,58.70
2018-03-04T10:16:59.588Z,58.23
2018-03-04T10:19:29.472Z,55.03
2018-03-04T10:21:59.375Z,54.90
2018-03-04T10:24:29.260Z,61.03
2018-03-04T10:26:59.180Z,54.67
2018-03-04T10:29:29.042Z,57.50
2018-03-04T10:31:59.583Z,57.23
2018-03-04T10:34:29.780Z,50.50
2018-03-04T10:36:59.682Z,56.20
2018-03-04T10:39:29.616Z,60.77
2018-03-04T10:41:59.545Z,56.37
2018-03-04T10:44:29.413Z,57.57
2018-03-04T10:46:59.288Z,53.17
2018-03-04T10:49:29.174Z,56.80
2018-03-04T10:51:59.046Z,61.17
2018-03-04T10:54:28.953Z,59.00
2018-03-04T10:56:58.814Z,59.03
2018-03-04T10:59:28.687Z,58.80
2018-03-04T11:02:04.472Z,63.47
2018-03-04T11:04:34.311Z,55.80
2018-03-04T11:07:04.239Z,59.37
2018-03-04T11:09:34.148Z,64.10
2018-03-04T11:12:04.048Z,60.57
2018-03-04T11:14:33.904Z,64.37
2018-03-04T11:17:03.812Z,59.23
2018-03-04T11:19:33.673Z,59.57
2018-03-04T11:22:03.578Z,57.80
2018-03-04T11:24:33.457Z,54.43
2018-03-04T11:27:03.344Z,59.93
2018-03-04T11:29:33.199Z,57.33
2018-03-04T11:32:03.080Z,62.10
2018-03-04T11:34:32.980Z,56.47
2018-03-04T11:37:02.873Z,61.50
2018-03-04T11:39:32.773Z,61.67
2018-03-04T11:42:02.633Z,57.53
2018-03-04T11:44:32.527Z,59.93
2018-03-04T11:47:02.393Z,59.23
2018-03-04T11:49:32.532Z,62.50
2018-03-04T11:52:02.428Z,63.97
2018-03-04T11:54:32.335Z,61.50
2018-03-04T11:57:02.210Z,62.13
2018-03-04T11:59:32.056Z,63.23
2018-03-04T12:02:01.953Z,60.70
2018-03-04T12:04:31.816Z,59.67
2018-03-04T12:07:01.701Z,61.63
2018-03-04T12:09:31.593Z,63.83
2018-03-04T12:12:01.478Z,63.37
2018-03-04T12:14:31.340Z,63.17
2018-03-04T12:17:01.220Z,64.90
2018-03-04T12:19:31.070Z,60.80
2018-03-04T12:22:01.032Z,106.00
2018-03-04T12:24:30.895Z,62.73
2018-03-04T12:27:00.808Z,68.30
2018-03-04T12:29:30.672Z,66.03
2018-03-04T12:32:00.875Z,67.53
2018-03-04T12:34:30.724Z,60.57
2018-03-04T12:37:00.588Z,68.40
2018-03-04T12:39:30.456Z,63.90
2018-03-04T12:42:00.348Z,64.40
2018-03-04T12:44:30.200Z,65.87
2018-03-04T12:47:00.088Z,63.30
2018-03-04T12:49:29.990Z,65.73
2018-03-04T12:51:59.899Z,64.23
2018-03-04T12:54:29.785Z,67.27
2018-03-04T12:56:59.660Z,60.67
2018-03-04T12:59:29.552Z,63.83
2018-03-04T13:01:59.428Z,63.07
2018-03-04T13:04:29.272Z,78.80
2018-03-04T13:06:59.171Z,69.30
2018-03-04T13:09:29.036Z,62.23
2018-03-04T13:11:58.938Z,63.87
2018-03-04T13:14:28.828Z,58.73
2018-03-04T13:16:58.705Z,59.53
2018-03-04T13:19:28.614Z,60.27
2018-03-04T13:21:58.476Z,63.83
2018-03-04T13:24:28.371Z,63.57
2018-03-04T13:26:58.281Z,58.50
2018-03-04T13:29:28.164Z,61.90
2018-03-04T13:31:58.081Z,66.13
2018-03-04T13:34:27.937Z,62.87
2018-03-04T13:36:57.847Z,65.20
2018-03-04T13:39:27.741Z,65.33
2018-03-04T13:41:57.585Z,65.77
2018-03-04T13:44:27.480Z,64.10
2018-03-04T13:46:57.481Z,66.70
2018-03-04T13:49:27.455Z,69.60
2018-03-04T13:51:57.343Z,68.93
2018-03-04T13:54:27.216Z,62.10
2018-03-04T13:56:57.100Z,56.60
2018-03-04T13:59:26.981Z,63.43
2018-03-04T14:01:56.856Z,66.47
2018-03-04T14:04:26.744Z,70.40
2018-03-04T14:06:56.643Z,65.90
2018-03-04T14:09:26.566Z,71.13
2018-03-04T14:11:56.420Z,67.87
2018-03-04T14:14:26.288Z,67.90
2018-03-04T14:16:56.172Z,68.00
2018-03-04T14:19:26.132Z,68.63
2018-03-04T14:21:56.004Z,68.20
2018-03-04T14:24:25.908Z,68.43
2018-03-04T14:26:55.772Z,62.97
2018-03-04T14:29:25.762Z,66.97
2018-03-04T14:31:55.731Z,64.37
2018-03-04T14:34:25.580Z,66.43
2018-03-04T14:36:55.506Z,62.43
2018-03-04T14:39:25.392Z,62.77
2018-03-04T14:41:55.279Z,66.63
2018-03-04T14:44:25.184Z,66.57
2018-03-04T14:46:55.044Z,57.57
2018-03-04T14:49:24.948Z,62.97
2018-03-04T14:51:54.812Z,66.43
2018-03-04T14:54:25.471Z,64.70
2018-03-04T14:56:55.413Z,70.47
2018-03-04T14:59:25.326Z,69.00
2018-03-04T15:01:55.177Z,62.57
2018-03-04T15:04:25.069Z,65.50
2018-03-04T15:06:54.940Z,63.70
2018-03-04T15:09:25.712Z,66.57
2018-03-04T15:11:55.560Z,68.37
2018-03-04T15:14:25.506Z,68.97
2018-03-04T15:16:55.362Z,60.17
2018-03-04T15:19:25.260Z,62.40
2018-03-04T15:21:55.111Z,62.60
2018-03-04T15:24:24.991Z,61.57
2018-03-04T15:26:54.880Z,58.87
2018-03-04T15:29:24.804Z,65.80
2018-03-04T15:31:54.688Z,59.83
2018-03-04T15:34:24.554Z,60.63
2018-03-04T15:36:54.473Z,59.17
2018-03-04T15:39:24.340Z,61.47
2018-03-04T15:41:54.241Z,56.47
2018-03-04T15:44:24.117Z,54.93
2018-03-04T15:46:54.014Z,54.43
2018-03-04T15:49:23.872Z,55.17
2018-03-04T15:51:53.894Z,60.30
2018-03-04T15:54:23.760Z,57.27
2018-03-04T15:56:53.628Z,56.10
2018-03-04T15:59:23.523Z,58.97
2018-03-04T16:01:53.464Z,57.07
2018-03-04T16:04:23.632Z,53.83
2018-03-04T16:06:53.517Z,57.40
2018-03-04T16:09:23.387Z,58.33
2018-03-04T16:11:53.550Z,54.63
2018-03-04T16:14:23.417Z,56.40
2018-03-04T16:16:53.378Z,53.70
2018-03-04T16:19:23.244Z,55.47
2018-03-04T16:21:53.136Z,61.10
2018-03-04T16:24:23.148Z,58.60
2018-03-04T16:26:53.006Z,58.47
2018-03-04T16:29:22.904Z,60.73
2018-03-04T16:31:52.940Z,59.80
2018-03-04T16:34:22.816Z,55.50
2018-03-04T16:36:52.734Z,58.43
2018-03-04T16:39:22.629Z,60.13
2018-03-04T16:41:52.546Z,60.97
2018-03-04T16:44:22.436Z,52.90
2018-03-04T16:46:52.320Z,55.57
2018-03-04T16:49:22.170Z,58.47
2018-03-04T16:51:52.082Z,53.17
2018-03-04T16:54:21.957Z,55.20
2018-03-04T16:56:51.840Z,49.83
2018-03-04T16:59:21.702Z,53.87
2018-03-04T17:01:51.617Z,58.73
2018-03-04T17:04:21.488Z,56.83
2018-03-04T17:06:51.372Z,59.67
2018-03-04T17:09:21.217Z,54.27
2018-03-04T17:11:51.140Z,61.03
2018-03-04T17:14:21.040Z,66.37
2018-03-04T17:16:50.955Z,66.50
2018-03-04T17:19:20.852Z,64.37
2018-03-04T17:21:50.755Z,61.37
2018-03-04T17:24:20.656Z,64.53
2018-03-04T17:26:50.532Z,59.80
2018-03-04T17:29:20.402Z,67.33
2018-03-04T17:31:50.327Z,66.63
2018-03-04T17:34:20.228Z,69.33
2018-03-04T17:36:50.139Z,63.13
2018-03-04T17:39:20.040Z,62.50
2018-03-04T17:41:49.896Z,67.10
2018-03-04T17:44:19.940Z,71.40
2018-03-04T17:46:49.801Z,64.73
2018-03-04T17:49:19.746Z,67.63
2018-03-04T17:51:49.620Z,67.70
2018-03-04T17:54:19.529Z,69.60
2018-03-04T17:56:49.417Z,65.97
2018-03-04T17:59:19.291Z,63.70
2018-03-04T18:01:49.186Z,65.80
2018-03-04T18:04:19.057Z,63.43
2018-03-04T18:06:48.977Z,63.77
2018-03-04T18:09:18.853Z,60.50
2018-03-04T18:11:48.745Z,59.03
2018-03-04T18:14:18.705Z,57.17
2018-03-04T18:16:48.704Z,63.40
2018-03-04T18:19:18.647Z,57.83
2018-03-04T18:21:48.534Z,57.70
2018-03-04T18:24:18.448Z,57.63
2018-03-04T18:26:48.349Z,57.40
2018-03-04T18:29:18.269Z,57.93
2018-03-04T18:31:48.147Z,63.10
2018-03-04T18:34:18.121Z,66.40
2018-03-04T18:36:48.001Z,60.13
2018-03-04T18:39:17.896Z,55.37
2018-03-04T18:41:47.835Z,56.23
2018-03-04T18:44:17.705Z,57.57
2018-03-04T18:46:47.830Z,57.57
2018-03-04T18:49:17.800Z,54.93
2018-03-04T18:51:47.726Z,64.13
2018-03-04T18:54:17.734Z,58.93
2018-03-04T18:56:48.715Z,56.57
2018-03-04T18:59:18.684Z,59.40
2018-03-04T19:01:48.708Z,57.73
2018-03-04T19:04:19.018Z,56.97
2018-03-04T19:06:48.900Z,55.63
2018-03-04T19:09:18.900Z,55.33
2018-03-04T19:11:48.768Z,56.07
2018-03-04T19:14:18.718Z,55.03
2018-03-04T19:16:48.604Z,61.97
2018-03-04T19:19:18.501Z,58.80
2018-03-04T19:21:48.548Z,55.13
2018-03-04T19:24:18.463Z,61.00
2018-03-04T19:26:48.328Z,53.30
2018-03-04T19:29:18.708Z,54.03
2018-03-04T19:31:48.608Z,53.93
2018-03-04T19:34:18.635Z,52.20
2018-03-04T19:36:48.504Z,53.43
2018-03-04T19:39:18.452Z,54.67
2018-03-04T19:41:48.449Z,52.80
2018-03-04T19:44:18.350Z,53.30
2018-03-04T19:46:48.212Z,54.07
2018-03-04T19:49:18.188Z,52.37
2018-03-04T19:51:48.036Z,53.47
2018-03-04T19:54:17.950Z,48.27
2018-03-04T19:56:47.817Z,52.17
2018-03-04T19:59:17.788Z,57.73
2018-03-04T20:01:47.766Z,51.20
2018-03-04T20:04:17.829Z,55.73
2018-03-04T20:06:48.339Z,52.10
2018-03-04T20:09:18.260Z,51.97
2018-03-04T20:11:48.137Z,48.13
2018-03-04T20:14:18.178Z,49.37
2018-03-04T20:16:48.113Z,54.77
2018-03-04T20:19:18.091Z,50.53
2018-03-04T20:21:48.031Z,52.07
2018-03-04T20:24:18.198Z,48.40
2018-03-04T20:26:48.151Z,50.70
2018-03-04T20:29:18.128Z,51.70
2018-03-04T20:31:49.481Z,49.60
2018-03-04T20:34:19.523Z,51.50
2018-03-04T20:36:49.448Z,59.37
2018-03-04T20:39:19.319Z,50.60
2018-03-04T20:41:49.251Z,53.83
2018-03-04T20:44:19.201Z,49.07
2018-03-04T20:46:49.085Z,49.43
2018-03-04T20:49:18.956Z,49.37
2018-03-04T20:51:48.897Z,52.07
2018-03-04T20:54:18.840Z,48.90
2018-03-04T20:56:48.764Z,48.93
2018-03-04T20:59:18.644Z,55.73
2018-03-04T21:01:48.539Z,54.17
2018-03-04T21:06:54.785Z,54.20
2018-03-04T21:09:24.680Z,54.70
2018-03-04T21:11:54.785Z,50.57
2018-03-04T21:14:24.647Z,49.93
2018-03-04T21:16:54.891Z,46.63
2018-03-04T21:19:24.747Z,48.97
2018-03-04T21:21:54.646Z,46.13
2018-03-04T21:24:24.507Z,51.40
2018-03-04T21:26:54.495Z,49.97
2018-03-04T21:29:24.390Z,48.97
2018-03-04T21:31:54.326Z,48.73
2018-03-04T21:34:24.230Z,45.97
2018-03-04T21:36:54.164Z,52.73
2018-03-04T21:39:24.059Z,45.90
2018-03-04T21:41:53.945Z,44.50
2018-03-04T21:44:23.845Z,54.67
2018-03-04T21:46:53.705Z,49.90
2018-03-04T21:49:23.598Z,48.77
2018-03-04T21:51:53.464Z,48.10
2018-03-04T21:54:23.357Z,50.40
2018-03-04T21:56:53.252Z,50.40
2018-03-04T21:59:23.133Z,51.53
2018-03-04T22:01:53.036Z,46.27
2018-03-04T22:04:22.958Z,48.13
2018-03-04T22:06:52.816Z,44.83
2018-03-04T22:09:22.741Z,49.63
2018-03-04T22:11:52.657Z,49.00
2018-03-04T22:14:22.573Z,51.43
2018-03-04T22:16:52.444Z,49.30
2018-03-04T22:19:22.333Z,51.43
2018-03-04T22:21:52.213Z,47.67
2018-03-04T22:24:22.106Z,48.10
2018-03-04T22:26:51.972Z,49.40
2018-03-04T22:29:21.896Z,47.27
2018-03-04T22:31:51.775Z,47.77
2018-03-04T22:34:21.672Z,46.53
2018-03-04T22:36:51.534Z,48.80
2018-03-04T22:39:21.432Z,51.23
2018-03-04T22:41:51.288Z,47.77
2018-03-04T22:44:21.237Z,46.60
2018-03-04T22:46:51.114Z,49.30
2018-03-04T22:49:21.028Z,52.73
2018-03-04T22:51:50.885Z,52.20
2018-03-04T22:54:20.796Z,50.50
2018-03-04T22:56:50.677Z,49.90
2018-03-04T22:59:20.565Z,43.93
2018-03-04T23:01:50.504Z,51.47
2018-03-04T23:04:20.373Z,46.30
2018-03-04T23:06:50.274Z,51.63
2018-03-04T23:09:20.140Z,50.00
2018-03-04T23:11:50.028Z,50.03
2018-03-04T23:14:19.900Z,49.20
2018-03-04T23:16:49.792Z,53.37
2018-03-04T23:19:19.676Z,52.10
2018-03-04T23:21:49.624Z,48.27
2018-03-04T23:24:19.499Z,49.77
2018-03-04T23:26:49.392Z,45.80
2018-03-04T23:29:19.263Z,47.60
2018-03-04T23:31:49.156Z,51.90
2018-03-04T23:34:19.029Z,51.83
2018-03-04T23:36:48.937Z,52.10
2018-03-04T23:39:18.784Z,55.67
2018-03-04T23:41:48.736Z,55.77
2018-03-04T23:44:18.599Z,51.90
2018-03-04T23:46:48.520Z,55.23
2018-03-04T23:49:18.380Z,52.37
2018-03-04T23:51:48.278Z,55.50
2018-03-04T23:54:18.132Z,51.43
2018-03-04T23:56:48.057Z,54.00
2018-03-04T23:59:17.935Z,53.87
